createdAt,value
2022-10-01T00:01:16.111Z,77.76
2022-10-01T00:03:43.765Z,78.83
2022-10-01T00:06:19.273Z,78.68
2022-10-01T00:08:49.687Z,79.05
2022-10-01T00:11:23.708Z,78.94
2022-10-01T00:13:52.029Z,78.77
2022-10-01T00:16:23.580Z,78.38
2022-10-01T00:18:52.600Z,78.08
2022-10-01T00:21:26.675Z,78.00
2022-10-01T00:24:05.502Z,77.79
2022-10-01T00:26:35.573Z,77.42
2022-10-01T00:29:10.550Z,77.09
2022-10-01T00:31:37.974Z,76.95
2022-10-01T00:34:06.393Z,76.84
2022-10-01T00:36:33.891Z,76.62
2022-10-01T00:39:00.979Z,77.06
2022-10-01T00:41:32.416Z,76.77
2022-10-01T00:44:04.243Z,77.20
2022-10-01T00:46:42.320Z,77.08
2022-10-01T00:49:20.044Z,77.58
2022-10-01T00:51:55.622Z,77.18
2022-10-01T00:54:31.152Z,77.83
2022-10-01T00:56:59.751Z,77.76
2022-10-01T00:59:28.379Z,77.83
2022-10-01T01:01:55.300Z,78.00
2022-10-01T01:04:22.868Z,78.12
2022-10-01T01:07:00.382Z,77.57
2022-10-01T01:09:33.634Z,77.67
2022-10-01T01:12:39.595Z,77.45
2022-10-01T01:15:25.594Z,79.00
2022-10-01T01:18:02.407Z,78.94
2022-10-01T01:21:02.135Z,78.73
2022-10-01T01:23:47.451Z,78.72
2022-10-01T01:26:41.074Z,78.82
2022-10-01T01:29:38.237Z,78.75
2022-10-01T01:32:14.822Z,78.62
2022-10-01T01:34:45.529Z,78.72
2022-10-01T01:37:17.478Z,78.41
2022-10-01T01:39:50.294Z,78.49
2022-10-01T01:42:31.156Z,78.27
2022-10-01T01:45:01.001Z,78.60
2022-10-01T01:47:30.455Z,78.26
2022-10-01T01:49:58.945Z,77.92
2022-10-01T01:52:25.999Z,78.08
2022-10-01T01:54:54.119Z,77.82
2022-10-01T01:57:21.542Z,77.54
2022-10-01T01:59:48.558Z,77.88
2022-10-01T02:02:28.180Z,78.07
2022-10-01T02:05:03.462Z,78.05
2022-10-01T02:07:52.832Z,78.01
2022-10-01T02:10:34.601Z,78.18
2022-10-01T02:13:25.450Z,77.71
2022-10-01T02:16:14.934Z,78.09
2022-10-01T02:19:05.625Z,77.60
2022-10-01T02:22:03.108Z,77.69
2022-10-01T02:24:56.941Z,78.08
2022-10-01T02:27:31.745Z,78.27
2022-10-01T02:30:02.557Z,78.01
2022-10-01T02:32:32.189Z,78.08
2022-10-01T02:35:01.043Z,77.96
2022-10-01T02:37:33.822Z,77.55
2022-10-01T02:40:03.682Z,77.68
2022-10-01T02:42:33.182Z,78.06
2022-10-01T02:45:02.538Z,77.76
2022-10-01T02:48:02.355Z,77.82
2022-10-01T02:50:39.269Z,77.54
2022-10-01T02:53:16.937Z,77.64
2022-10-01T02:55:46.126Z,77.68
2022-10-01T02:58:12.929Z,77.22
2022-10-01T03:00:39.714Z,77.21
2022-10-01T03:03:06.496Z,77.59
2022-10-01T03:05:33.306Z,77.69
2022-10-01T03:08:00.222Z,77.49
2022-10-01T03:10:27.005Z,77.60
2022-10-01T03:12:54.058Z,77.16
2022-10-01T03:15:20.939Z,77.24
2022-10-01T03:17:54.726Z,77.47
2022-10-01T03:20:22.489Z,78.03
2022-10-01T03:22:49.476Z,78.75
2022-10-01T03:25:16.638Z,78.80
2022-10-01T03:27:44.207Z,78.38
2022-10-01T03:30:11.953Z,78.40
2022-10-01T03:32:38.786Z,78.05
2022-10-01T03:35:06.241Z,77.59
2022-10-01T03:37:33.021Z,77.80
2022-10-01T03:40:00.000Z,77.71
2022-10-01T03:42:26.790Z,77.46
2022-10-01T03:44:53.548Z,77.61
2022-10-01T03:47:22.168Z,77.51
2022-10-01T03:49:48.953Z,77.61
2022-10-01T03:52:15.741Z,77.94
2022-10-01T03:54:42.504Z,78.02
2022-10-01T03:57:09.324Z,77.39
2022-10-01T03:59:36.117Z,77.31
2022-10-01T04:02:02.970Z,77.07
2022-10-01T04:04:29.859Z,77.24
2022-10-01T04:06:56.626Z,77.24
2022-10-01T04:09:23.485Z,77.01
2022-10-01T04:11:50.540Z,77.06
2022-10-01T04:14:17.367Z,77.08
2022-10-01T04:16:44.178Z,77.20
2022-10-01T04:19:11.088Z,77.29
2022-10-01T04:21:39.035Z,77.26
2022-10-01T04:24:06.088Z,77.00
2022-10-01T04:26:32.891Z,76.86
2022-10-01T04:28:59.712Z,77.31
2022-10-01T04:31:26.842Z,76.82
2022-10-01T04:33:56.583Z,77.48
2022-10-01T04:36:25.056Z,77.08
2022-10-01T04:38:58.038Z,77.27
2022-10-01T04:41:30.337Z,77.21
2022-10-01T04:43:59.053Z,77.16
2022-10-01T04:46:26.260Z,77.37
2022-10-01T04:48:53.080Z,77.62
2022-10-01T04:51:19.877Z,77.25
2022-10-01T04:53:46.997Z,77.51
2022-10-01T04:56:13.787Z,77.68
2022-10-01T04:58:41.284Z,77.57
2022-10-01T05:01:08.131Z,76.40
2022-10-01T05:03:35.485Z,75.82
2022-10-01T05:06:02.257Z,75.64
2022-10-01T05:08:29.277Z,76.11
2022-10-01T05:10:59.006Z,76.48
2022-10-01T05:13:29.830Z,76.71
2022-10-01T05:15:56.687Z,77.09
2022-10-01T05:18:23.483Z,77.39
2022-10-01T05:20:50.269Z,77.75
2022-10-01T05:23:17.008Z,77.96
2022-10-01T05:25:46.740Z,77.70
2022-10-01T05:28:15.999Z,77.91
2022-10-01T05:30:46.753Z,78.04
2022-10-01T05:33:13.660Z,77.96
2022-10-01T05:35:41.503Z,77.79
2022-10-01T05:38:08.258Z,78.17
2022-10-01T05:40:35.045Z,79.30
2022-10-01T05:43:03.025Z,78.04
2022-10-01T05:45:31.511Z,77.65
2022-10-01T05:48:03.923Z,77.42
2022-10-01T05:50:34.179Z,77.72
2022-10-01T05:53:02.110Z,77.60
2022-10-01T05:55:34.452Z,78.19
2022-10-01T05:58:05.050Z,78.17
2022-10-01T06:00:33.765Z,76.95
2022-10-01T06:03:02.307Z,76.76
2022-10-01T06:05:31.489Z,76.19
2022-10-01T06:07:58.837Z,75.87
2022-10-01T06:10:28.085Z,75.64
2022-10-01T06:13:02.981Z,76.91
2022-10-01T06:15:31.688Z,76.69
2022-10-01T06:18:03.031Z,77.30
2022-10-01T06:20:29.932Z,76.84
2022-10-01T06:22:58.291Z,77.17
2022-10-01T06:25:29.585Z,77.00
2022-10-01T06:27:59.123Z,76.74
2022-10-01T06:30:31.630Z,76.89
2022-10-01T06:33:06.038Z,75.08
2022-10-01T06:35:34.302Z,75.60
2022-10-01T06:38:04.735Z,74.86
2022-10-01T06:40:32.144Z,74.48
2022-10-01T06:42:59.462Z,74.31
2022-10-01T06:45:27.780Z,75.71
2022-10-01T06:48:02.498Z,74.59
2022-10-01T06:50:31.057Z,74.04
2022-10-01T06:52:58.367Z,73.10
2022-10-01T06:55:32.023Z,73.44
2022-10-01T06:58:05.363Z,73.60
2022-10-01T07:00:35.785Z,73.40
2022-10-01T07:03:06.507Z,72.76
2022-10-01T07:05:33.329Z,72.12
2022-10-01T07:08:00.333Z,71.65
2022-10-01T07:10:27.202Z,71.47
2022-10-01T07:12:53.980Z,71.39
2022-10-01T07:15:22.812Z,71.88
2022-10-01T07:17:51.027Z,71.13
2022-10-01T07:20:20.115Z,70.99
2022-10-01T07:22:48.737Z,71.02
2022-10-01T07:25:16.130Z,71.27
2022-10-01T07:27:43.014Z,71.36
2022-10-01T07:30:10.491Z,70.70
2022-10-01T07:32:37.302Z,69.96
2022-10-01T07:35:05.871Z,69.86
2022-10-01T07:37:32.721Z,69.56
2022-10-01T07:40:01.984Z,69.52
2022-10-01T07:42:31.275Z,69.80
2022-10-01T07:44:58.075Z,68.90
2022-10-01T07:47:24.890Z,68.61
2022-10-01T07:49:51.702Z,68.50
2022-10-01T07:52:18.478Z,68.70
2022-10-01T07:54:45.324Z,68.33
2022-10-01T07:57:12.313Z,68.26
2022-10-01T07:59:40.879Z,67.33
2022-10-01T08:02:18.880Z,67.17
2022-10-01T08:05:06.018Z,66.80
2022-10-01T08:07:32.833Z,65.89
2022-10-01T08:09:59.638Z,65.92
2022-10-01T08:12:30.383Z,66.15
2022-10-01T08:14:57.235Z,64.23
2022-10-01T08:17:28.586Z,64.94
2022-10-01T08:19:56.285Z,64.58
2022-10-01T08:22:23.047Z,63.75
2022-10-01T08:24:49.891Z,63.50
2022-10-01T08:27:16.681Z,64.09
2022-10-01T08:29:43.510Z,63.22
2022-10-01T08:32:11.253Z,62.60
2022-10-01T08:34:38.074Z,62.45
2022-10-01T08:37:05.326Z,62.11
2022-10-01T08:39:32.193Z,62.37
2022-10-01T08:42:31.676Z,60.90
2022-10-01T08:45:02.743Z,61.98
2022-10-01T08:47:38.507Z,61.75
2022-10-01T08:50:35.972Z,62.05
2022-10-01T08:53:11.928Z,62.34
2022-10-01T08:55:41.157Z,61.43
2022-10-01T08:58:21.849Z,60.98
2022-10-01T09:00:49.664Z,60.18
2022-10-01T09:03:18.108Z,61.09
2022-10-01T09:06:16.343Z,60.48
2022-10-01T09:09:04.732Z,60.43
2022-10-01T09:11:49.946Z,60.31
2022-10-01T09:14:37.349Z,60.49
2022-10-01T09:17:48.115Z,60.19
2022-10-01T09:20:30.486Z,62.08
2022-10-01T09:23:32.463Z,61.26
2022-10-01T09:25:59.936Z,61.41
2022-10-01T09:28:33.562Z,60.15
2022-10-01T09:31:20.049Z,60.33
2022-10-01T09:34:16.976Z,60.30
2022-10-01T09:37:05.499Z,59.75
2022-10-01T09:39:40.315Z,59.90
2022-10-01T09:42:07.506Z,59.76
2022-10-01T09:44:34.901Z,58.73
2022-10-01T09:47:01.680Z,58.07
2022-10-01T09:49:39.493Z,59.72
2022-10-01T09:52:16.061Z,58.89
2022-10-01T09:55:38.225Z,58.29
2022-10-01T09:58:18.689Z,59.19
2022-10-01T10:00:45.715Z,60.33
2022-10-01T10:03:29.869Z,60.99
2022-10-01T10:06:00.213Z,60.86
2022-10-01T10:08:34.892Z,62.21
2022-10-01T10:11:10.869Z,62.83
2022-10-01T10:13:41.623Z,63.14
2022-10-01T10:16:35.934Z,64.33
2022-10-01T10:19:27.547Z,64.13
2022-10-01T10:22:00.605Z,63.84
2022-10-01T10:24:35.092Z,63.62
2022-10-01T10:27:06.783Z,65.38
2022-10-01T10:29:37.021Z,65.57
2022-10-01T10:32:25.414Z,66.46
2022-10-01T10:35:02.858Z,67.31
2022-10-01T10:37:38.014Z,67.41
2022-10-01T10:40:10.434Z,66.79
2022-10-01T10:42:38.814Z,68.42
2022-10-01T10:45:20.004Z,68.20
2022-10-01T10:47:51.085Z,68.58
2022-10-01T10:50:39.754Z,67.91
2022-10-01T10:53:22.299Z,69.09
2022-10-01T10:55:57.273Z,69.34
2022-10-01T10:58:30.251Z,69.65
2022-10-01T11:01:02.553Z,69.94
2022-10-01T11:03:32.451Z,71.18
2022-10-01T11:06:11.273Z,72.22
2022-10-01T11:08:39.468Z,71.81
2022-10-01T11:11:23.127Z,72.85
2022-10-01T11:14:04.931Z,73.81
2022-10-01T11:17:00.387Z,72.88
2022-10-01T11:19:59.943Z,73.54
2022-10-01T11:22:40.281Z,74.05
2022-10-01T11:25:31.114Z,74.30
2022-10-01T11:28:33.281Z,73.91
2022-10-01T11:31:37.545Z,73.49
2022-10-01T11:34:14.718Z,74.60
2022-10-01T11:37:07.986Z,75.01
2022-10-01T11:39:38.587Z,74.70
2022-10-01T11:42:17.303Z,74.23
2022-10-01T11:44:57.415Z,74.26
2022-10-01T11:47:36.313Z,74.15
2022-10-01T11:50:25.197Z,74.38
2022-10-01T11:53:21.087Z,74.19
2022-10-01T11:56:17.257Z,75.01
2022-10-01T11:58:54.217Z,74.55
2022-10-01T12:01:23.725Z,75.65
2022-10-01T12:03:53.162Z,76.51
2022-10-01T12:06:47.565Z,77.13
2022-10-01T12:09:23.161Z,76.33
2022-10-01T12:12:07.583Z,75.56
2022-10-01T12:14:49.414Z,75.05
2022-10-01T12:17:36.169Z,75.24
2022-10-01T12:20:13.152Z,75.03
2022-10-01T12:22:42.196Z,74.87
2022-10-01T12:25:13.452Z,75.77
2022-10-01T12:27:53.411Z,75.98
2022-10-01T12:30:34.334Z,75.96
2022-10-01T12:33:13.068Z,75.46
2022-10-01T12:36:03.291Z,75.29
2022-10-01T12:38:44.438Z,76.07
2022-10-01T12:42:03.822Z,77.56
2022-10-01T12:44:59.826Z,76.37
2022-10-01T12:47:55.447Z,76.38
2022-10-01T12:51:12.634Z,75.98
2022-10-01T12:54:00.408Z,75.81
2022-10-01T12:56:40.381Z,75.50
2022-10-01T12:59:18.865Z,76.03
2022-10-01T13:01:54.113Z,76.47
2022-10-01T13:04:51.381Z,76.40
2022-10-01T13:07:40.329Z,76.21
2022-10-01T13:10:27.658Z,76.13
2022-10-01T13:13:11.748Z,76.77
2022-10-01T13:15:42.115Z,76.11
2022-10-01T13:18:44.537Z,76.09
2022-10-01T13:21:21.129Z,76.88
2022-10-01T13:24:05.444Z,77.20
2022-10-01T13:26:39.734Z,76.23
2022-10-01T13:29:45.076Z,75.03
2022-10-01T13:32:50.768Z,75.82
2022-10-01T13:35:36.697Z,76.97
2022-10-01T13:38:40.516Z,77.08
2022-10-01T13:41:22.089Z,75.46
2022-10-01T13:44:01.627Z,74.56
2022-10-01T13:46:33.063Z,74.40
2022-10-01T13:49:17.070Z,75.19
2022-10-01T13:51:45.935Z,74.36
2022-10-01T13:54:48.600Z,74.49
2022-10-01T13:57:38.520Z,73.79
2022-10-01T14:00:17.523Z,74.08
2022-10-01T14:03:17.758Z,75.37
2022-10-01T14:05:44.964Z,74.49
2022-10-01T14:08:25.192Z,74.60
2022-10-01T14:11:16.758Z,73.63
2022-10-01T14:14:06.833Z,73.77
2022-10-01T14:16:45.961Z,73.74
2022-10-01T14:19:25.783Z,73.84
2022-10-01T14:22:10.463Z,73.37
2022-10-01T14:24:58.346Z,72.87
2022-10-01T14:27:41.940Z,72.22
2022-10-01T14:30:24.650Z,72.35
2022-10-01T14:33:16.642Z,71.65
2022-10-01T14:36:02.391Z,72.47
2022-10-01T14:38:29.350Z,72.24
2022-10-01T14:40:56.139Z,72.43
2022-10-01T14:43:30.870Z,72.14
2022-10-01T14:46:05.797Z,71.66
2022-10-01T14:48:35.732Z,72.07
2022-10-01T14:51:06.431Z,72.64
2022-10-01T14:53:38.397Z,72.71
2022-10-01T14:56:12.867Z,72.71
2022-10-01T14:58:47.328Z,70.99
2022-10-01T15:01:19.526Z,71.52
2022-10-01T15:03:47.896Z,70.54
2022-10-01T15:06:19.149Z,70.03
2022-10-01T15:08:49.449Z,70.64
2022-10-01T15:11:25.192Z,71.86
2022-10-01T15:13:55.828Z,70.81
2022-10-01T15:16:27.879Z,71.56
2022-10-01T15:19:03.857Z,70.40
2022-10-01T15:21:48.484Z,69.96
2022-10-01T15:24:44.164Z,71.82
2022-10-01T15:27:18.167Z,71.33
2022-10-01T15:29:45.824Z,70.62
2022-10-01T15:32:18.912Z,70.41
2022-10-01T15:34:54.987Z,70.25
2022-10-01T15:37:35.185Z,70.30
2022-10-01T15:40:05.553Z,71.28
2022-10-01T15:42:34.858Z,71.59
2022-10-01T15:45:07.654Z,71.70
2022-10-01T15:47:52.214Z,70.80
2022-10-01T15:50:29.881Z,71.50
2022-10-01T15:53:21.503Z,70.32
2022-10-01T15:55:56.912Z,69.94
2022-10-01T15:58:32.243Z,69.49
2022-10-01T16:01:12.347Z,70.66
2022-10-01T16:03:47.428Z,70.96
2022-10-01T16:06:39.815Z,71.29
2022-10-01T16:09:23.821Z,71.91
2022-10-01T16:12:06.704Z,71.95
2022-10-01T16:14:43.673Z,71.60
2022-10-01T16:17:20.064Z,72.52
2022-10-01T16:19:52.172Z,71.76
2022-10-01T16:22:35.320Z,71.41
2022-10-01T16:25:31.212Z,70.88
2022-10-01T16:28:05.874Z,71.38
2022-10-01T16:30:34.074Z,72.05
2022-10-01T16:33:04.639Z,71.85
2022-10-01T16:35:35.674Z,72.76
2022-10-01T16:38:08.215Z,71.99
2022-10-01T16:40:41.637Z,71.63
2022-10-01T16:43:18.698Z,72.00
2022-10-01T16:45:45.938Z,71.39
2022-10-01T16:48:19.562Z,71.52
2022-10-01T16:50:47.283Z,72.00
2022-10-01T16:53:18.158Z,71.97
2022-10-01T16:55:45.914Z,71.41
2022-10-01T16:58:12.962Z,71.95
2022-10-01T17:00:39.971Z,73.40
2022-10-01T17:03:12.133Z,72.16
2022-10-01T17:05:39.175Z,71.62
2022-10-01T17:08:11.286Z,71.25
2022-10-01T17:11:01.148Z,71.32
2022-10-01T17:13:32.694Z,72.79
2022-10-01T17:16:01.043Z,72.78
2022-10-01T17:18:28.349Z,72.12
2022-10-01T17:20:56.164Z,72.77
2022-10-01T17:23:23.492Z,72.85
2022-10-01T17:25:50.644Z,71.38
2022-10-01T17:28:20.164Z,72.80
2022-10-01T17:30:48.606Z,72.88
2022-10-01T17:33:20.844Z,72.54
2022-10-01T17:35:51.765Z,72.72
2022-10-01T17:38:19.418Z,72.69
2022-10-01T17:40:47.419Z,73.41
2022-10-01T17:43:16.206Z,72.45
2022-10-01T17:45:47.369Z,72.07
2022-10-01T17:48:15.521Z,73.00
2022-10-01T17:50:44.997Z,74.06
2022-10-01T17:53:12.841Z,72.29
2022-10-01T17:55:44.633Z,72.43
2022-10-01T17:58:11.963Z,71.92
2022-10-01T18:00:41.149Z,71.84
2022-10-01T18:03:08.009Z,71.92
2022-10-01T18:05:34.946Z,71.47
2022-10-01T18:08:01.921Z,72.30
2022-10-01T18:10:28.706Z,70.86
2022-10-01T18:12:57.393Z,71.78
2022-10-01T18:15:24.311Z,71.73
2022-10-01T18:18:48.493Z,70.98
2022-10-01T18:20:40.952Z,71.28
2022-10-01T18:23:08.118Z,71.18
2022-10-01T18:25:34.929Z,72.40
2022-10-01T18:28:02.068Z,72.22
2022-10-01T18:30:28.889Z,72.59
2022-10-01T18:32:57.359Z,72.83
2022-10-01T18:35:35.089Z,72.45
2022-10-01T18:38:28.414Z,73.65
2022-10-01T18:41:02.858Z,73.40
2022-10-01T18:43:34.736Z,72.79
2022-10-01T18:46:28.873Z,72.07
2022-10-01T18:49:21.748Z,71.47
2022-10-01T18:52:13.108Z,71.97
2022-10-01T18:55:25.215Z,71.10
2022-10-01T18:58:59.271Z,71.51
2022-10-01T19:01:49.024Z,72.12
2022-10-01T19:04:33.598Z,72.02
2022-10-01T19:07:29.333Z,71.61
2022-10-01T19:10:12.313Z,71.70
2022-10-01T19:13:17.142Z,72.03
2022-10-01T19:16:13.078Z,71.12
2022-10-01T19:18:58.345Z,71.55
2022-10-01T19:21:52.729Z,71.38
2022-10-01T19:25:01.067Z,71.96
2022-10-01T19:27:46.365Z,71.16
2022-10-01T19:30:16.427Z,71.43
2022-10-01T19:33:00.176Z,71.76
2022-10-01T19:35:38.295Z,71.81
2022-10-01T19:38:22.272Z,71.84
2022-10-01T19:40:56.305Z,71.71
2022-10-01T19:43:48.239Z,72.28
2022-10-01T19:46:40.335Z,71.36
2022-10-01T19:49:27.411Z,72.25
2022-10-01T19:52:01.565Z,71.79
2022-10-01T19:54:38.812Z,72.88
2022-10-01T19:57:20.693Z,72.92
2022-10-01T19:59:47.911Z,72.74
2022-10-01T20:02:31.449Z,73.89
2022-10-01T20:05:11.325Z,72.21
2022-10-01T20:07:58.640Z,73.20
2022-10-01T20:10:37.099Z,74.77
2022-10-01T20:13:31.420Z,74.53
2022-10-01T20:16:36.202Z,73.60
2022-10-01T20:19:19.749Z,73.57
2022-10-01T20:22:11.710Z,73.30
2022-10-01T20:24:54.059Z,73.77
2022-10-01T20:27:40.611Z,72.92
2022-10-01T20:30:20.020Z,73.18
2022-10-01T20:33:07.129Z,72.54
2022-10-01T20:36:03.921Z,73.87
2022-10-01T20:38:43.654Z,74.20
2022-10-01T20:41:16.932Z,74.24
2022-10-01T20:43:51.397Z,74.07
2022-10-01T20:46:36.328Z,74.01
2022-10-01T20:49:13.905Z,73.32
2022-10-01T20:51:58.577Z,73.52
2022-10-01T20:54:39.113Z,75.43
2022-10-01T20:57:32.721Z,73.95
2022-10-01T21:00:23.146Z,74.21
2022-10-01T21:03:20.070Z,73.96
2022-10-01T21:06:01.168Z,74.09
2022-10-01T21:08:47.457Z,73.76
2022-10-01T21:11:53.018Z,74.33
2022-10-01T21:14:34.326Z,73.32
2022-10-01T21:17:33.934Z,74.45
2022-10-01T21:20:20.998Z,74.00
2022-10-01T21:22:56.682Z,74.24
2022-10-01T21:25:54.072Z,74.60
2022-10-01T21:29:06.551Z,73.73
2022-10-01T21:31:44.703Z,74.31
2022-10-01T21:34:42.420Z,74.59
2022-10-01T21:37:23.374Z,74.56
2022-10-01T21:40:18.194Z,74.49
2022-10-01T21:43:09.554Z,73.78
2022-10-01T21:45:47.676Z,73.76
2022-10-01T21:48:17.165Z,73.64
2022-10-01T21:50:57.016Z,74.20
2022-10-01T21:53:46.091Z,73.47
2022-10-01T21:56:37.323Z,74.71
2022-10-01T21:59:41.745Z,74.58
2022-10-01T22:02:40.777Z,74.53
2022-10-01T22:05:24.821Z,75.14
2022-10-01T22:08:26.820Z,74.36
2022-10-01T22:11:00.740Z,75.08
2022-10-01T22:13:33.093Z,74.55
2022-10-01T22:16:14.328Z,73.23
2022-10-01T22:18:57.542Z,73.64
2022-10-01T22:21:25.902Z,73.63
2022-10-01T22:24:04.806Z,73.63
2022-10-01T22:26:34.687Z,73.90
2022-10-01T22:29:07.351Z,73.42
2022-10-01T22:31:36.627Z,73.41
2022-10-01T22:34:12.996Z,73.26
2022-10-01T22:36:49.033Z,73.60
2022-10-01T22:39:23.577Z,72.98
2022-10-01T22:41:58.510Z,72.83
2022-10-01T22:44:28.237Z,73.76
2022-10-01T22:47:40.990Z,73.77
2022-10-01T22:50:19.947Z,74.06
2022-10-01T22:53:11.649Z,73.31
2022-10-01T22:55:53.036Z,74.43
2022-10-01T22:58:34.888Z,73.64
2022-10-01T23:01:31.598Z,73.37
2022-10-01T23:04:22.448Z,73.50
2022-10-01T23:07:02.940Z,73.97
2022-10-01T23:10:01.234Z,74.06
2022-10-01T23:13:15.243Z,73.92
2022-10-01T23:16:16.192Z,73.13
2022-10-01T23:18:52.993Z,74.18
2022-10-01T23:21:37.822Z,73.17
2022-10-01T23:24:43.534Z,74.28
2022-10-01T23:27:46.204Z,74.16
2022-10-01T23:30:16.819Z,73.73
2022-10-01T23:33:41.621Z,73.84
2022-10-01T23:36:49.842Z,72.72
2022-10-01T23:39:44.382Z,73.71
2022-10-01T23:43:07.605Z,72.99
2022-10-01T23:45:47.851Z,73.54
2022-10-01T23:48:50.319Z,73.41
2022-10-01T23:51:32.067Z,73.22
2022-10-01T23:54:36.441Z,73.88
2022-10-01T23:57:21.572Z,73.73
